Aktualne dane pomiarowe

Uwaga, wersja testowa! Automatyczne pobieranie danych za pomocą narzędzi lub skryptów to umożliwiających jest zabronione.

Dane meteo z obszaru Polski uzyskane na podstawie depesz SYNOP pobieranych co godzinę z NWS. Najedź myszką na symbol przedstawiony w tabeli, aby uzyskać informacje co do jego znaczenia. Prosimy pamiętać, że to testowa wersja strony, która jeszcze nie jest ukończona. Stworzono również jest krótki FAQ dotyczący korzystania z tej podstrony Anomalie temperatury w chwili obecnej odniesione są do okresu referencyjnego 1951-2016. Okres ten będzie później zmieniony na 1981-2010. Kliknij ikonę aby pobrać plik CSV. Kliknij ikonę aby wygenerować mapę synoptyczną dla danego terminu.

Wybierz Datę:    

        

Częstochowa (12550)

Dane terminowe dla wybranej stacji. Kliknij datę, aby otrzymać dane z tego terminu dla wszystkich stacji.

TemperaturaZachmurzenieWiatrCiśnienieOpadyPogoda
 Data t td wb tx tn tg rh  Nt Nl Cl Cm Ch ws wd g1 g2 wx mslp ppp ch 24h 12h t ww ww w1 w2  
2019-08-13 23:00:00 18.9 11.2 14.1--- 6130.0--3wx--31015.1 980.6 -0.4---------
2019-08-13 22:00:00 18.4 13.3 15.1--- 7218.0--0---01015.2 980.7 -0.3---------
2019-08-13 21:00:00 18.3 13.6 15.2--- 7416.0--1wx---1015.8 981.2 0.4---------
2019-08-13 20:00:00 18.8 12.1 14.6--- 6530.0--1wx--11015.5 981.0 -0.1---------
2019-08-13 19:00:00 19.3 12.6 15.0--- 6511.0--1wx--11015.4 981.0 0.0---------
2019-08-13 18:00:00 20.4 12.4 15.4 23.8 15.8- 6035.0--1wx--11015.1 980.8 -0.1- 0.012------
2019-08-13 17:00:00 21.5 11.8 15.5--- 5440.0--1wx--11015.3 981.1 -0.1---------
2019-08-13 16:00:00 22.5 11.2 15.7--- 4930.0--2wx--21015.1 981.0 -0.2---------
2019-08-13 15:00:00 22.6 10.7 15.5--- 4735.0--1wx--11015.0 980.9 -0.7---------
2019-08-13 14:00:00 22.6 12.2 16.2--- 5235.0--1wx--11015.3 981.2 -0.7---------
2019-08-13 13:00:00 22.6 12.2 16.2--- 5230.0--2wx--21015.3 981.2 -0.6---------
2019-08-13 12:00:00 22.2 12.7 16.3--- 5530.0--2wx-621015.7 981.6 -0.4- 0.06------
2019-08-13 11:00:00 22.1 12.9 16.3--- 5630.0--2wx--21016.0 981.9 -0.1---------
2019-08-13 10:00:00 21.2 14.6 16.9--- 6635.0--2wx--21016.0 981.8 0.5---------
2019-08-13 09:00:00 19.8 15.2 16.7--- 7522.0--2wx--21016.4 982.0 0.8---------
2019-08-13 08:00:00 18.2 15.4 16.2--- 8418.0--2wx--21016.6 982.0 1.4---------
2019-08-13 07:00:00 17.0 15.2 15.7--- 8914.0--1wx--11016.0 981.3 0.7---------
2019-08-13 06:00:00 15.9 15.1 15.3 22.0 15.3 15 9510.0--2wx--21016.1 981.2 0.3 24.0 24.012wx---- 4.7
2019-08-13 05:00:00 15.6 15.0 15.1--- 965.0--1wx--11015.5 980.6 -0.4---wx-----
2019-08-13 04:00:00 15.4 14.8 14.9--- 963.6--1wx--11015.5 980.6 -0.4---wx-----
2019-08-13 03:00:00 15.3 14.5 14.7--- 954.3--1wx--11015.8 980.9 1.2---wx-----
2019-08-13 02:00:00 15.6 14.6 14.9--- 946.0--2wx--21015.9 981.0 1.0---wx-----
2019-08-13 01:00:00 16.4 15.8 15.9--- 962.7--2wx---1015.8 981.0 0.9---wx-----
2019-08-13 00:00:00 16.6 16.0 16.1--- 964.7--3wx-1031014.4 979.7 -0.3- 18.06wx-----
2019-08-12 23:00:00 17.0 16.4 16.5--- 962.5--3wx--31014.7 980.0 -0.2---wx-----
2019-08-12 22:00:00 17.0 16.2 16.4--- 954.7--2wx--21014.8 980.1 -0.8---wx-----
2019-08-12 21:00:00 17.2 16.2 16.5--- 945.0--1wx-1011014.7 980.0 0.7---wx-----
2019-08-12 20:00:00 17.6 16.6 16.9--- 944.1--2wx--21014.8 980.2 1.1---wx-----
2019-08-12 19:00:00 18.5 16.3 16.9--- 872.5--3wx91031015.4 980.9 1.5---wx-----
2019-08-12 18:00:00 22.0 16.0 18.0 28.3 20.3- 6917.0--3wx-2331013.4 979.3 -0.5--12wx-----
2019-08-12 17:00:00 22.8 15.4 18.0--- 6328.0--4wx---1013.1 979.1 -0.5---------
2019-08-12 16:00:00 24.4 15.6 18.7--- 5830.0--5wx-2351013.2 979.4 -0.2---------
2019-08-12 15:00:00 25.3 15.6 19.0--- 5530.0--5wx-851013.5 979.8 0.4---------
2019-08-12 14:00:00 27.0 16.3 20.0--- 5230.0--2wx--21013.1 979.6 -0.1---------
2019-08-12 13:00:00 27.5 16.8 20.5--- 5230.0--1wx--11013.0 979.6 -0.1---------
2019-08-12 12:00:00 27.8 16.1 20.2--- 4928.0--1wx-911012.8 979.4 -0.2- 0.06------
2019-08-12 11:00:00 27.1 16.4 20.1--- 5230.0--2wx--21013.2 979.7 0.2---------
2019-08-12 10:00:00 27.5 15.8 20.0--- 4930.0--1wx---1013.1 979.7 0.5---------
2019-08-12 09:00:00 27.2 15.9 19.9--- 5030.0--1wx-911013.1 979.6 0.4---------
2019-08-12 08:00:00 26.5 15.2 19.3--- 5030.0--2wx--21013.1 979.5 0.6---------
2019-08-12 07:00:00 24.1 16.4 19.0--- 6216.0--1wx-911013.0 979.2 -0.2---------
2019-08-12 06:00:00 20.3 15.7 17.2 23.6 17.6 16 7520.0--2wx--21013.5 979.2 -1.0- 0.012----- 12.1
2019-08-12 05:00:00 19.1 14.8 16.2--- 7627.0--2wx---1013.3 978.9 -1.4---------
2019-08-12 04:00:00 18.1 14.0 15.3--- 7724.0--1wx--11013.9 979.4 -1.0---------
2019-08-12 03:00:00 17.7 13.6 15.0--- 7722.0--1wx--11014.8 980.2 -0.6---------
2019-08-12 02:00:00 17.8 13.5 14.9--- 7630.0--1wx--11014.9 980.3 -0.4---------
2019-08-12 01:00:00 18.7 13.3 15.2--- 7130.0--1wx--11014.9 980.4 -0.5---------
2019-08-12 00:00:00 18.2 13.1 14.9--- 7235.0--1wx---1015.4 980.8 -0.6---------
21.8 ms

 

Print Friendly, PDF & Email